createdAt,value
2019-03-24T00:00:12.960Z,3.92
2019-03-24T00:02:49.806Z,4.17
2019-03-24T00:05:27.647Z,4.12
2019-03-24T00:08:04.520Z,4.42
2019-03-24T00:10:41.358Z,4.47
2019-03-24T00:13:17.912Z,4.40
2019-03-24T00:15:54.905Z,4.10
2019-03-24T00:18:31.367Z,3.95
2019-03-24T00:21:07.706Z,4.12
2019-03-24T00:23:44.361Z,3.80
2019-03-24T00:26:23.434Z,4.37
2019-03-24T00:29:03.347Z,3.72
2019-03-24T00:31:40.317Z,4.12
2019-03-24T00:34:19.137Z,3.85
2019-03-24T00:36:56.788Z,3.77
2019-03-24T00:39:34.233Z,4.05
2019-03-24T00:42:11.633Z,3.75
2019-03-24T00:44:48.696Z,4.17
2019-03-24T00:47:26.417Z,3.90
2019-03-24T00:50:02.776Z,4.28
2019-03-24T00:52:40.312Z,4.08
2019-03-24T00:55:16.929Z,4.03
2019-03-24T00:57:54.209Z,4.22
2019-03-24T01:00:47.980Z,3.98
2019-03-24T01:03:25.134Z,4.23
2019-03-24T01:06:04.857Z,3.47
2019-03-24T01:08:41.419Z,4.08
2019-03-24T01:11:17.969Z,4.03
2019-03-24T01:13:55.031Z,3.83
2019-03-24T01:16:32.044Z,3.65
2019-03-24T01:19:08.805Z,4.05
2019-03-24T01:21:45.224Z,3.67
2019-03-24T01:24:22.448Z,3.40
2019-03-24T01:26:59.428Z,3.95
2019-03-24T01:29:37.136Z,4.17
2019-03-24T01:32:13.713Z,3.50
2019-03-24T01:34:51.081Z,3.75
2019-03-24T01:37:28.989Z,3.45
2019-03-24T01:40:06.587Z,4.60
2019-03-24T01:42:42.941Z,3.87
2019-03-24T01:45:20.534Z,3.90
2019-03-24T01:47:56.946Z,3.42
2019-03-24T01:50:34.829Z,3.72
2019-03-24T01:53:12.202Z,3.62
2019-03-24T01:55:48.704Z,3.47
2019-03-24T01:58:25.873Z,3.67
2019-03-24T02:01:02.721Z,3.20
2019-03-24T02:03:39.310Z,3.95
2019-03-24T02:06:17.092Z,3.70
2019-03-24T02:08:53.703Z,3.77
2019-03-24T02:11:30.778Z,3.90
2019-03-24T02:14:07.720Z,3.37
2019-03-24T02:16:44.517Z,4.08
2019-03-24T02:19:21.774Z,3.83
2019-03-24T02:21:58.170Z,3.75
2019-03-24T02:24:34.837Z,3.40
2019-03-24T02:27:12.549Z,3.83
2019-03-24T02:29:48.966Z,3.52
2019-03-24T02:32:26.238Z,3.35
2019-03-24T02:35:02.547Z,3.87
2019-03-24T02:37:39.851Z,3.65
2019-03-24T02:40:16.418Z,3.42
2019-03-24T02:42:54.234Z,3.75
2019-03-24T02:45:31.266Z,3.63
2019-03-24T02:48:08.481Z,3.27
2019-03-24T02:50:45.362Z,3.77
2019-03-24T02:53:22.118Z,3.70
2019-03-24T02:55:59.392Z,3.62
2019-03-24T02:58:36.853Z,3.62
2019-03-24T03:01:13.405Z,3.62
2019-03-24T03:03:51.221Z,3.50
2019-03-24T03:06:27.750Z,4.00
2019-03-24T03:09:05.879Z,3.83
2019-03-24T03:11:42.264Z,3.80
2019-03-24T03:14:20.224Z,3.80
2019-03-24T03:16:57.542Z,3.35
2019-03-24T03:19:34.572Z,3.55
2019-03-24T03:22:11.898Z,3.47
2019-03-24T03:24:49.089Z,3.47
2019-03-24T03:27:25.614Z,3.30
2019-03-24T03:30:02.889Z,3.80
2019-03-24T03:32:40.249Z,3.87
2019-03-24T03:35:17.269Z,4.17
2019-03-24T03:37:53.986Z,3.70
2019-03-24T03:40:31.462Z,3.60
2019-03-24T03:43:08.612Z,3.30
2019-03-24T03:45:45.198Z,3.70
2019-03-24T03:48:21.967Z,3.40
2019-03-24T03:50:59.285Z,3.40
2019-03-24T03:53:36.374Z,3.85
2019-03-24T03:56:13.872Z,3.92
2019-03-24T03:58:51.558Z,3.37
2019-03-24T04:01:28.876Z,3.58
2019-03-24T04:04:05.877Z,3.55
2019-03-24T04:06:43.143Z,3.50
2019-03-24T04:09:19.586Z,3.73
2019-03-24T04:11:56.219Z,3.37
2019-03-24T04:14:33.198Z,3.52
2019-03-24T04:17:10.599Z,3.22
2019-03-24T04:19:47.877Z,3.50
2019-03-24T04:22:25.502Z,3.35
2019-03-24T04:25:02.139Z,3.73
2019-03-24T04:27:38.749Z,3.67
2019-03-24T04:30:15.515Z,3.80
2019-03-24T04:32:53.250Z,3.30
2019-03-24T04:35:30.524Z,3.40
2019-03-24T04:38:08.032Z,3.62
2019-03-24T04:40:45.387Z,2.90
2019-03-24T04:43:23.477Z,3.65
2019-03-24T04:46:00.152Z,3.67
2019-03-24T04:48:36.862Z,3.83
2019-03-24T04:51:13.823Z,3.43
2019-03-24T04:53:50.669Z,3.65
2019-03-24T04:56:27.268Z,4.28
2019-03-24T04:59:04.784Z,3.70
2019-03-24T05:01:41.424Z,3.60
2019-03-24T05:04:18.371Z,3.67
2019-03-24T05:06:55.103Z,3.72
2019-03-24T05:09:32.705Z,3.50
2019-03-24T05:12:10.211Z,3.50
2019-03-24T05:14:46.834Z,3.67
2019-03-24T05:17:27.366Z,3.58
2019-03-24T05:20:02.023Z,3.77
2019-03-24T05:22:39.349Z,3.73
2019-03-24T05:25:17.074Z,3.40
2019-03-24T05:27:53.416Z,3.90
2019-03-24T05:30:30.365Z,4.00
2019-03-24T05:33:07.652Z,3.55
2019-03-24T05:35:45.153Z,3.60
2019-03-24T05:38:21.624Z,3.62
2019-03-24T05:40:58.933Z,3.87
2019-03-24T05:43:35.609Z,3.67
2019-03-24T05:46:12.997Z,3.87
2019-03-24T05:48:49.860Z,3.67
2019-03-24T05:51:27.443Z,3.55
2019-03-24T05:54:04.657Z,3.60
2019-03-24T05:56:42.249Z,3.58
2019-03-24T05:59:19.306Z,3.80
2019-03-24T06:01:56.314Z,3.62
2019-03-24T06:04:33.259Z,3.40
2019-03-24T06:07:10.788Z,3.58
2019-03-24T06:09:47.846Z,3.30
2019-03-24T06:12:24.373Z,3.40
2019-03-24T06:15:01.612Z,3.40
2019-03-24T06:17:47.413Z,3.43
2019-03-24T06:20:18.314Z,3.80
2019-03-24T06:22:55.990Z,4.03
2019-03-24T06:25:34.914Z,3.58
2019-03-24T06:28:11.035Z,3.67
2019-03-24T06:30:47.588Z,4.08
2019-03-24T06:33:25.222Z,3.72
2019-03-24T06:36:02.112Z,3.80
2019-03-24T06:38:39.548Z,3.72
2019-03-24T06:41:16.833Z,4.85
2019-03-24T06:43:54.341Z,5.08
2019-03-24T06:46:31.209Z,5.40
2019-03-24T06:49:09.130Z,5.60
2019-03-24T06:51:46.600Z,5.08
2019-03-24T06:54:23.609Z,4.92
2019-03-24T06:57:00.065Z,5.22
2019-03-24T06:59:37.553Z,4.90
2019-03-24T07:02:14.705Z,4.65
2019-03-24T07:04:51.935Z,4.77
2019-03-24T07:07:29.756Z,5.12
2019-03-24T07:10:07.769Z,4.80
2019-03-24T07:12:44.518Z,5.70
2019-03-24T07:15:22.181Z,4.90
2019-03-24T07:18:07.933Z,4.85
2019-03-24T07:20:36.928Z,4.87
2019-03-24T07:23:14.156Z,5.00
2019-03-24T07:25:52.134Z,4.85
2019-03-24T07:28:28.918Z,5.37
2019-03-24T07:31:06.212Z,5.62
2019-03-24T07:33:43.312Z,5.17
2019-03-24T07:36:19.961Z,4.93
2019-03-24T07:38:57.178Z,5.58
2019-03-24T07:41:34.368Z,5.62
2019-03-24T07:44:11.241Z,5.47
2019-03-24T07:46:48.837Z,4.92
2019-03-24T07:49:26.119Z,6.15
2019-03-24T07:52:03.518Z,5.00
2019-03-24T07:54:40.485Z,5.95
2019-03-24T07:57:17.746Z,6.28
2019-03-24T07:59:54.808Z,5.90
2019-03-24T08:02:32.475Z,5.08
2019-03-24T08:05:09.313Z,5.00
2019-03-24T08:07:46.922Z,5.37
2019-03-24T08:10:23.447Z,5.17
2019-03-24T08:13:00.557Z,7.30
2019-03-24T08:15:37.233Z,6.17
2019-03-24T08:18:15.050Z,5.37
2019-03-24T08:20:52.321Z,5.40
2019-03-24T08:23:29.766Z,5.28
2019-03-24T08:26:06.962Z,5.47
2019-03-24T08:28:44.427Z,5.03
2019-03-24T08:31:21.269Z,5.58
2019-03-24T08:33:58.984Z,5.30
2019-03-24T08:36:35.663Z,4.80
2019-03-24T08:39:13.092Z,4.65
2019-03-24T08:41:49.724Z,5.78
2019-03-24T08:44:27.321Z,5.53
2019-03-24T08:47:04.513Z,5.37
2019-03-24T08:49:42.301Z,4.92
2019-03-24T08:52:18.872Z,4.35
2019-03-24T08:54:56.082Z,5.70
2019-03-24T08:57:32.642Z,4.90
2019-03-24T09:00:10.898Z,5.15
2019-03-24T09:02:47.501Z,5.10
2019-03-24T09:05:24.238Z,4.45
2019-03-24T09:08:01.409Z,4.40
2019-03-24T09:10:38.490Z,4.30
2019-03-24T09:13:14.955Z,4.65
2019-03-24T09:15:54.684Z,4.65
2019-03-24T09:18:31.142Z,4.97
2019-03-24T09:21:08.063Z,5.05
2019-03-24T09:23:45.315Z,6.12
2019-03-24T09:26:22.616Z,6.62
2019-03-24T09:29:01.106Z,7.60
2019-03-24T09:31:38.625Z,8.38
2019-03-24T09:34:15.471Z,8.50
2019-03-24T09:36:52.753Z,9.20
2019-03-24T09:39:30.238Z,10.08
2019-03-24T09:42:08.061Z,13.18
2019-03-24T09:44:44.538Z,14.73
2019-03-24T09:47:21.774Z,11.63
2019-03-24T09:49:58.788Z,12.23
2019-03-24T09:52:35.906Z,13.05
2019-03-24T09:55:13.317Z,16.75
2019-03-24T09:57:50.068Z,15.55
2019-03-24T10:00:27.324Z,15.48
2019-03-24T10:03:04.694Z,15.03
2019-03-24T10:05:42.220Z,18.87
2019-03-24T10:08:19.511Z,16.02
2019-03-24T10:10:56.069Z,20.45
2019-03-24T10:13:33.752Z,24.00
2019-03-24T10:16:10.650Z,22.32
2019-03-24T10:18:49.181Z,24.10
2019-03-24T10:21:26.544Z,20.75
2019-03-24T10:24:04.909Z,21.23
2019-03-24T10:26:42.349Z,16.97
2019-03-24T10:29:19.838Z,15.55
2019-03-24T10:31:56.809Z,14.38
2019-03-24T10:34:33.937Z,13.08
2019-03-24T10:37:10.693Z,13.53
2019-03-24T10:39:47.495Z,12.43
2019-03-24T10:42:24.999Z,11.45
2019-03-24T10:45:02.140Z,11.10
2019-03-24T10:47:38.589Z,10.23
2019-03-24T10:50:15.804Z,10.30
2019-03-24T10:52:52.714Z,9.83
2019-03-24T10:55:29.479Z,9.90
2019-03-24T10:58:06.370Z,9.88
2019-03-24T11:00:44.968Z,11.22
2019-03-24T11:03:22.122Z,10.68
2019-03-24T11:05:59.649Z,10.00
2019-03-24T11:08:36.760Z,9.55
2019-03-24T11:11:14.268Z,8.83
2019-03-24T11:13:51.786Z,9.25
2019-03-24T11:16:28.487Z,10.23
2019-03-24T11:19:06.108Z,8.60
2019-03-24T11:21:43.387Z,8.58
2019-03-24T11:24:21.140Z,8.95
2019-03-24T11:26:57.908Z,9.43
2019-03-24T11:29:35.672Z,9.73
2019-03-24T11:32:12.782Z,8.38
2019-03-24T11:34:49.595Z,8.93
2019-03-24T11:37:27.383Z,10.08
2019-03-24T11:40:04.887Z,9.38
2019-03-24T11:42:41.685Z,8.45
2019-03-24T11:45:18.919Z,7.92
2019-03-24T11:47:56.246Z,8.83
2019-03-24T11:50:33.541Z,8.43
2019-03-24T11:53:10.743Z,7.50
2019-03-24T11:55:47.678Z,7.72
2019-03-24T11:58:25.072Z,7.90
2019-03-24T12:01:02.434Z,8.05
2019-03-24T12:03:39.478Z,8.13
2019-03-24T12:06:16.492Z,7.05
2019-03-24T12:08:54.178Z,7.70
2019-03-24T12:11:31.505Z,7.22
2019-03-24T12:14:08.232Z,7.42
2019-03-24T12:16:45.560Z,7.00
2019-03-24T12:19:23.264Z,6.90
2019-03-24T12:21:59.821Z,6.70
2019-03-24T12:24:37.322Z,6.92
2019-03-24T12:27:14.584Z,5.85
2019-03-24T12:29:51.606Z,6.53
2019-03-24T12:32:27.962Z,6.55
2019-03-24T12:35:06.703Z,7.17
2019-03-24T12:37:43.784Z,6.80
2019-03-24T12:40:21.080Z,7.00
2019-03-24T12:42:58.000Z,6.28
2019-03-24T12:45:34.797Z,7.33
2019-03-24T12:48:12.134Z,6.37
2019-03-24T12:50:49.498Z,6.78
2019-03-24T12:53:26.870Z,6.22
2019-03-24T12:56:03.882Z,5.87
2019-03-24T12:58:40.623Z,5.45
2019-03-24T13:01:18.164Z,5.95
2019-03-24T13:03:54.996Z,5.33
2019-03-24T13:06:32.704Z,6.20
2019-03-24T13:09:10.446Z,6.17
2019-03-24T13:11:47.072Z,5.15
2019-03-24T13:14:24.480Z,5.58
2019-03-24T13:17:02.396Z,5.10
2019-03-24T13:19:39.975Z,5.55
2019-03-24T13:22:17.412Z,6.42
2019-03-24T13:24:54.393Z,6.10
2019-03-24T13:27:31.356Z,5.85
2019-03-24T13:30:08.686Z,5.37
2019-03-24T13:32:46.556Z,5.50
2019-03-24T13:35:23.800Z,5.62
2019-03-24T13:38:01.202Z,5.97
2019-03-24T13:40:37.831Z,5.75
2019-03-24T13:43:16.464Z,5.47
2019-03-24T13:45:52.847Z,5.33
2019-03-24T13:48:30.561Z,5.60
2019-03-24T13:51:07.689Z,6.05
2019-03-24T13:53:45.646Z,5.47
2019-03-24T13:56:22.984Z,5.27
2019-03-24T13:58:59.566Z,5.15
2019-03-24T14:01:35.914Z,5.47
2019-03-24T14:04:12.824Z,5.17
2019-03-24T14:06:50.428Z,5.15
2019-03-24T14:09:27.253Z,5.00
2019-03-24T14:12:04.518Z,5.53
2019-03-24T14:14:41.641Z,5.35
2019-03-24T14:17:18.462Z,5.55
2019-03-24T14:19:55.574Z,5.03
2019-03-24T14:22:32.217Z,5.00
2019-03-24T14:25:09.744Z,4.87
2019-03-24T14:27:46.545Z,5.65
2019-03-24T14:30:40.801Z,5.15
2019-03-24T14:33:17.490Z,5.80
2019-03-24T14:35:54.956Z,5.08
2019-03-24T14:38:31.993Z,5.35
2019-03-24T14:41:09.621Z,5.95
2019-03-24T14:43:46.573Z,4.83
2019-03-24T14:46:24.626Z,4.97
2019-03-24T14:49:01.692Z,5.35
2019-03-24T14:51:39.705Z,4.75
2019-03-24T14:54:16.197Z,4.92
2019-03-24T14:56:52.786Z,4.97
2019-03-24T14:59:30.267Z,4.33
2019-03-24T15:02:07.168Z,4.67
2019-03-24T15:04:48.416Z,5.05
2019-03-24T15:07:25.157Z,5.17
2019-03-24T15:10:02.209Z,4.62
2019-03-24T15:12:39.206Z,4.47
2019-03-24T15:15:16.560Z,4.83
2019-03-24T15:17:53.528Z,4.40
2019-03-24T15:20:31.090Z,4.83
2019-03-24T15:23:10.746Z,5.42
2019-03-24T15:25:47.483Z,4.40
2019-03-24T15:28:25.292Z,4.28
2019-03-24T15:31:02.158Z,4.60
2019-03-24T15:33:40.853Z,4.55
2019-03-24T15:36:19.052Z,4.62
2019-03-24T15:38:55.712Z,4.50
2019-03-24T15:41:32.726Z,4.50
2019-03-24T15:44:10.144Z,4.65
2019-03-24T15:46:47.201Z,4.17
2019-03-24T15:49:24.036Z,4.00
2019-03-24T15:52:00.366Z,4.28
2019-03-24T15:54:36.669Z,4.28
2019-03-24T15:57:13.556Z,3.75
2019-03-24T15:59:50.750Z,4.70
2019-03-24T16:02:27.484Z,3.83
2019-03-24T16:05:05.313Z,3.95
2019-03-24T16:07:43.168Z,3.98
2019-03-24T16:10:20.616Z,3.87
2019-03-24T16:12:57.980Z,4.25
2019-03-24T16:15:35.180Z,3.98
2019-03-24T16:18:12.394Z,4.08
2019-03-24T16:20:49.729Z,3.62
2019-03-24T16:23:26.354Z,3.70
2019-03-24T16:26:03.597Z,4.15
2019-03-24T16:28:40.104Z,3.80
2019-03-24T16:31:17.506Z,3.85
2019-03-24T16:33:54.611Z,3.75
2019-03-24T16:36:31.814Z,3.30
2019-03-24T16:39:08.733Z,3.70
2019-03-24T16:41:45.925Z,3.17
2019-03-24T16:44:23.120Z,3.27
2019-03-24T16:47:00.249Z,3.25
2019-03-24T16:49:37.901Z,3.87
2019-03-24T16:52:15.283Z,4.10
2019-03-24T16:54:52.342Z,3.53
2019-03-24T16:57:34.660Z,4.00
2019-03-24T17:00:12.589Z,3.45
2019-03-24T17:02:49.243Z,3.85
2019-03-24T17:05:26.046Z,3.42
2019-03-24T17:08:03.293Z,3.80
2019-03-24T17:10:40.688Z,3.87
2019-03-24T17:13:17.761Z,3.75
2019-03-24T17:15:54.693Z,4.03
2019-03-24T17:18:32.464Z,4.00
2019-03-24T17:21:09.405Z,4.25
2019-03-24T17:23:47.117Z,4.37
2019-03-24T17:26:23.649Z,4.10
2019-03-24T17:29:00.541Z,4.58
2019-03-24T17:31:37.700Z,4.40
2019-03-24T17:34:15.176Z,4.60
2019-03-24T17:36:51.655Z,4.80
2019-03-24T17:39:28.834Z,4.28
2019-03-24T17:42:05.817Z,5.08
2019-03-24T17:44:43.556Z,4.27
2019-03-24T17:47:20.277Z,3.85
2019-03-24T17:49:57.201Z,3.72
2019-03-24T17:52:34.512Z,4.30
2019-03-24T17:55:11.911Z,3.40
2019-03-24T17:57:48.746Z,3.65
2019-03-24T18:00:40.538Z,3.58
2019-03-24T18:03:17.648Z,3.55
2019-03-24T18:05:55.226Z,3.87
2019-03-24T18:08:32.304Z,3.92
2019-03-24T18:11:09.446Z,4.95
2019-03-24T18:13:46.661Z,4.35
2019-03-24T18:16:23.705Z,4.50
2019-03-24T18:19:00.119Z,3.70
2019-03-24T18:21:37.160Z,4.28
2019-03-24T18:24:13.845Z,4.00
2019-03-24T18:26:51.644Z,3.80
2019-03-24T18:29:28.839Z,3.75
2019-03-24T18:32:06.245Z,3.58
2019-03-24T18:34:43.703Z,3.83
2019-03-24T18:37:22.221Z,4.05
2019-03-24T18:39:59.440Z,3.90
2019-03-24T18:42:37.018Z,5.70
2019-03-24T18:45:15.119Z,5.92
2019-03-24T18:47:52.469Z,5.25
2019-03-24T18:50:29.422Z,5.47
2019-03-24T18:53:07.195Z,4.85
2019-03-24T18:55:44.163Z,4.87
2019-03-24T18:58:21.351Z,3.98
2019-03-24T19:00:59.887Z,3.58
2019-03-24T19:03:37.756Z,4.30
2019-03-24T19:06:14.553Z,4.00
2019-03-24T19:08:51.904Z,3.40
2019-03-24T19:11:28.763Z,3.27
2019-03-24T19:14:05.802Z,3.52
2019-03-24T19:16:42.994Z,3.30
2019-03-24T19:19:20.380Z,3.58
2019-03-24T19:21:57.232Z,3.90
2019-03-24T19:24:34.736Z,4.33
2019-03-24T19:27:11.340Z,3.95
2019-03-24T19:29:48.742Z,3.37
2019-03-24T19:32:27.748Z,3.72
2019-03-24T19:35:08.340Z,3.08
2019-03-24T19:37:46.690Z,3.30
2019-03-24T19:40:28.170Z,3.83
2019-03-24T19:43:05.231Z,3.17
2019-03-24T19:45:41.936Z,3.40
2019-03-24T19:48:18.796Z,3.65
2019-03-24T19:50:56.364Z,3.02
2019-03-24T19:53:33.196Z,2.95
2019-03-24T19:56:19.776Z,2.80
2019-03-24T19:58:57.260Z,3.12
2019-03-24T20:01:35.277Z,3.30
2019-03-24T20:04:12.732Z,3.22
2019-03-24T20:06:50.200Z,2.90
2019-03-24T20:09:26.740Z,2.92
2019-03-24T20:12:04.389Z,3.08
2019-03-24T20:14:40.703Z,3.55
2019-03-24T20:17:19.589Z,2.95
2019-03-24T20:19:56.116Z,3.10
2019-03-24T20:22:33.922Z,3.20
2019-03-24T20:25:10.897Z,3.27
2019-03-24T20:27:48.603Z,3.00
2019-03-24T20:30:25.229Z,2.85
2019-03-24T20:33:02.772Z,2.58
2019-03-24T20:35:40.186Z,2.58
2019-03-24T20:38:17.659Z,2.65
2019-03-24T20:40:55.922Z,2.70
2019-03-24T20:43:33.191Z,2.65
2019-03-24T20:46:10.364Z,2.70
2019-03-24T20:48:47.889Z,2.45
2019-03-24T20:51:24.406Z,2.98
2019-03-24T20:54:02.244Z,2.60
2019-03-24T20:56:39.105Z,2.65
2019-03-24T20:59:27.084Z,2.83
2019-03-24T21:02:03.841Z,2.35
2019-03-24T21:04:40.959Z,2.33
2019-03-24T21:07:18.069Z,2.27
2019-03-24T21:09:56.648Z,2.42
2019-03-24T21:12:36.373Z,2.47
2019-03-24T21:15:13.820Z,2.62
2019-03-24T21:17:50.844Z,2.22
2019-03-24T21:20:27.597Z,2.10
2019-03-24T21:23:04.858Z,2.20
2019-03-24T21:25:41.318Z,2.62
2019-03-24T21:28:18.598Z,2.37
2019-03-24T21:30:55.441Z,1.90
2019-03-24T21:33:32.609Z,2.00
2019-03-24T21:36:09.292Z,1.92
2019-03-24T21:38:46.593Z,2.02
2019-03-24T21:41:24.355Z,1.82
2019-03-24T21:44:01.550Z,1.92
2019-03-24T21:46:38.832Z,2.17
2019-03-24T21:49:16.114Z,2.37
2019-03-24T21:51:52.712Z,2.02
2019-03-24T21:54:30.713Z,2.27
2019-03-24T21:57:08.100Z,2.10
2019-03-24T21:59:45.631Z,2.40
2019-03-24T22:02:22.773Z,1.85
2019-03-24T22:05:00.348Z,2.62
2019-03-24T22:07:37.168Z,2.10
2019-03-24T22:10:13.873Z,2.10
2019-03-24T22:12:51.381Z,2.10
2019-03-24T22:15:28.437Z,2.20
2019-03-24T22:18:06.531Z,2.20
2019-03-24T22:20:48.797Z,2.50
2019-03-24T22:23:21.881Z,2.15
2019-03-24T22:25:59.351Z,2.10
2019-03-24T22:28:36.112Z,2.08
2019-03-24T22:31:13.593Z,2.22
2019-03-24T22:33:50.324Z,2.08
2019-03-24T22:36:27.542Z,2.27
2019-03-24T22:39:07.118Z,1.90
2019-03-24T22:41:44.510Z,1.82
2019-03-24T22:44:21.436Z,2.08
2019-03-24T22:46:58.061Z,2.10
2019-03-24T22:49:35.651Z,2.12
2019-03-24T22:52:12.811Z,2.10
2019-03-24T22:54:50.153Z,2.33
2019-03-24T22:57:27.813Z,2.50
2019-03-24T23:00:08.476Z,2.10
2019-03-24T23:02:46.112Z,2.37
2019-03-24T23:05:23.339Z,1.90
2019-03-24T23:08:00.325Z,1.75
2019-03-24T23:10:37.928Z,2.52
2019-03-24T23:13:15.189Z,2.25
2019-03-24T23:15:52.699Z,1.80
2019-03-24T23:18:30.477Z,2.12
2019-03-24T23:21:07.993Z,1.72
2019-03-24T23:23:44.742Z,2.40
2019-03-24T23:26:22.685Z,1.87
2019-03-24T23:28:59.397Z,1.87
2019-03-24T23:31:38.006Z,2.10
2019-03-24T23:34:15.749Z,1.70
2019-03-24T23:36:52.337Z,2.05
2019-03-24T23:39:29.872Z,1.60
2019-03-24T23:42:07.629Z,2.00
2019-03-24T23:44:44.421Z,2.42
2019-03-24T23:47:22.396Z,1.80
2019-03-24T23:49:59.037Z,1.95
2019-03-24T23:52:36.060Z,1.80
2019-03-24T23:55:12.787Z,2.40
2019-03-24T23:57:50.276Z,2.30
